sensor_id;sensor_type;location;lat;lon;timestamp;P1;durP1;ratioP1;P2;durP2;ratioP2
52438;SDS011;73188;52.948;6.012;2024-03-08T00:05:08;1454.22;;;334.50;;
52438;SDS011;73188;52.948;6.012;2024-03-08T00:15:34;1508.63;;;339.73;;
52438;SDS011;73188;52.948;6.012;2024-03-08T00:26:00;1487.70;;;335.00;;
52438;SDS011;73188;52.948;6.012;2024-03-08T00:36:28;1565.53;;;345.75;;
52438;SDS011;73188;52.948;6.012;2024-03-08T00:46:55;1586.07;;;347.75;;
52438;SDS011;73188;52.948;6.012;2024-03-08T00:57:21;1571.28;;;346.50;;
52438;SDS011;73188;52.948;6.012;2024-03-08T01:07:47;1503.85;;;330.50;;
52438;SDS011;73188;52.948;6.012;2024-03-08T01:18:13;1528.07;;;335.15;;
52438;SDS011;73188;52.948;6.012;2024-03-08T01:28:39;1532.22;;;332.35;;
52438;SDS011;73188;52.948;6.012;2024-03-08T01:39:04;1407.57;;;313.13;;
52438;SDS011;73188;52.948;6.012;2024-03-08T01:49:33;1371.50;;;301.48;;
52438;SDS011;73188;52.948;6.012;2024-03-08T01:59:59;1297.90;;;299.92;;
52438;SDS011;73188;52.948;6.012;2024-03-08T02:10:28;1304.45;;;284.38;;
52438;SDS011;73188;52.948;6.012;2024-03-08T02:20:55;1445.72;;;322.42;;
52438;SDS011;73188;52.948;6.012;2024-03-08T02:31:23;1519.50;;;323.73;;
52438;SDS011;73188;52.948;6.012;2024-03-08T02:41:49;1371.95;;;301.58;;
52438;SDS011;73188;52.948;6.012;2024-03-08T02:52:14;1465.05;;;318.13;;
52438;SDS011;73188;52.948;6.012;2024-03-08T03:02:41;1536.18;;;327.83;;
52438;SDS011;73188;52.948;6.012;2024-03-08T03:13:07;1515.10;;;331.63;;
52438;SDS011;73188;52.948;6.012;2024-03-08T03:23:33;1453.75;;;297.80;;
52438;SDS011;73188;52.948;6.012;2024-03-08T03:34:00;1530.57;;;312.45;;
52438;SDS011;73188;52.948;6.012;2024-03-08T03:44:29;1557.45;;;342.08;;
52438;SDS011;73188;52.948;6.012;2024-03-08T03:54:55;1534.72;;;328.20;;
52438;SDS011;73188;52.948;6.012;2024-03-08T04:05:21;1559.95;;;310.05;;
52438;SDS011;73188;52.948;6.012;2024-03-08T04:15:47;1463.15;;;304.60;;
52438;SDS011;73188;52.948;6.012;2024-03-08T04:26:13;1405.03;;;298.17;;
52438;SDS011;73188;52.948;6.012;2024-03-08T04:36:39;1298.85;;;305.40;;
52438;SDS011;73188;52.948;6.012;2024-03-08T04:47:05;1410.57;;;323.52;;
52438;SDS011;73188;52.948;6.012;2024-03-08T04:57:31;1443.15;;;323.05;;
52438;SDS011;73188;52.948;6.012;2024-03-08T05:07:57;1479.47;;;329.45;;
52438;SDS011;73188;52.948;6.012;2024-03-08T05:18:22;1485.95;;;337.35;;
52438;SDS011;73188;52.948;6.012;2024-03-08T05:28:48;1461.43;;;333.98;;
52438;SDS011;73188;52.948;6.012;2024-03-08T05:39:14;1443.38;;;319.48;;
52438;SDS011;73188;52.948;6.012;2024-03-08T05:49:42;1507.28;;;330.83;;
52438;SDS011;73188;52.948;6.012;2024-03-08T06:00:09;1534.20;;;345.90;;
52438;SDS011;73188;52.948;6.012;2024-03-08T06:10:37;1617.32;;;359.33;;
52438;SDS011;73188;52.948;6.012;2024-03-08T06:21:03;1472.13;;;306.40;;
52438;SDS011;73188;52.948;6.012;2024-03-08T06:31:32;1582.68;;;325.83;;
52438;SDS011;73188;52.948;6.012;2024-03-08T06:41:58;1585.45;;;316.45;;
52438;SDS011;73188;52.948;6.012;2024-03-08T06:52:24;1607.22;;;359.80;;
52438;SDS011;73188;52.948;6.012;2024-03-08T07:02:49;1622.97;;;356.63;;
52438;SDS011;73188;52.948;6.012;2024-03-08T07:13:15;1703.10;;;387.30;;
52438;SDS011;73188;52.948;6.012;2024-03-08T07:23:41;1692.70;;;461.23;;
52438;SDS011;73188;52.948;6.012;2024-03-08T07:34:11;1512.13;;;321.65;;
52438;SDS011;73188;52.948;6.012;2024-03-08T07:44:37;1428.53;;;317.60;;
52438;SDS011;73188;52.948;6.012;2024-03-08T07:55:04;1407.25;;;309.75;;
52438;SDS011;73188;52.948;6.012;2024-03-08T08:05:30;1480.53;;;320.27;;
52438;SDS011;73188;52.948;6.012;2024-03-08T08:16:00;1563.93;;;370.90;;
52438;SDS011;73188;52.948;6.012;2024-03-08T08:26:26;1369.57;;;390.48;;
52438;SDS011;73188;52.948;6.012;2024-03-08T08:36:52;1720.15;;;577.35;;
52438;SDS011;73188;52.948;6.012;2024-03-08T08:47:19;31.50;;;16.63;;
52438;SDS011;73188;52.948;6.012;2024-03-08T08:57:45;550.50;;;507.42;;
52438;SDS011;73188;52.948;6.012;2024-03-08T09:08:11;684.60;;;635.50;;
52438;SDS011;73188;52.948;6.012;2024-03-08T09:18:38;714.72;;;651.13;;
52438;SDS011;73188;52.948;6.012;2024-03-08T09:29:04;751.40;;;684.97;;
52438;SDS011;73188;52.948;6.012;2024-03-08T09:39:32;54.90;;;44.67;;
52438;SDS011;73188;52.948;6.012;2024-03-08T09:49:58;43.40;;;28.02;;
52438;SDS011;73188;52.948;6.012;2024-03-08T10:00:24;35.85;;;21.95;;
52438;SDS011;73188;52.948;6.012;2024-03-08T10:10:50;62.30;;;51.03;;
52438;SDS011;73188;52.948;6.012;2024-03-08T10:21:16;94.13;;;65.25;;
52438;SDS011;73188;52.948;6.012;2024-03-08T10:31:43;34.90;;;21.88;;
52438;SDS011;73188;52.948;6.012;2024-03-08T10:42:11;896.33;;;706.97;;
52438;SDS011;73188;52.948;6.012;2024-03-08T10:52:44;35.40;;;19.08;;
52438;SDS011;73188;52.948;6.012;2024-03-08T11:03:56;50.03;;;40.45;;
52438;SDS011;73188;52.948;6.012;2024-03-08T11:14:05;61.17;;;48.33;;
52438;SDS011;73188;52.948;6.012;2024-03-08T11:24:38;31.75;;;19.35;;
52438;SDS011;73188;52.948;6.012;2024-03-08T11:35:07;212.63;;;190.93;;
52438;SDS011;73188;52.948;6.012;2024-03-08T11:45:43;259.95;;;169.13;;
52438;SDS011;73188;52.948;6.012;2024-03-08T11:56:10;1303.75;;;801.75;;
52438;SDS011;73188;52.948;6.012;2024-03-08T12:06:38;1451.95;;;806.33;;
52438;SDS011;73188;52.948;6.012;2024-03-08T12:17:06;100.07;;;85.03;;
52438;SDS011;73188;52.948;6.012;2024-03-08T12:27:32;743.75;;;677.58;;
52438;SDS011;73188;52.948;6.012;2024-03-08T12:37:58;746.10;;;676.58;;
52438;SDS011;73188;52.948;6.012;2024-03-08T12:48:25;1174.25;;;939.40;;
52438;SDS011;73188;52.948;6.012;2024-03-08T12:58:51;1412.82;;;854.97;;
52438;SDS011;73188;52.948;6.012;2024-03-08T13:09:18;923.08;;;808.92;;
52438;SDS011;73188;52.948;6.012;2024-03-08T13:19:47;224.05;;;203.43;;
52438;SDS011;73188;52.948;6.012;2024-03-08T13:30:13;974.85;;;724.10;;
52438;SDS011;73188;52.948;6.012;2024-03-08T13:40:43;495.85;;;459.23;;
52438;SDS011;73188;52.948;6.012;2024-03-08T13:51:09;693.22;;;641.45;;
52438;SDS011;73188;52.948;6.012;2024-03-08T14:01:37;805.70;;;742.20;;
52438;SDS011;73188;52.948;6.012;2024-03-08T14:12:03;827.17;;;741.72;;
52438;SDS011;73188;52.948;6.012;2024-03-08T14:22:32;875.80;;;787.47;;
52438;SDS011;73188;52.948;6.012;2024-03-08T14:32:58;448.27;;;401.83;;
52438;SDS011;73188;52.948;6.012;2024-03-08T14:43:27;209.98;;;190.73;;
52438;SDS011;73188;52.948;6.012;2024-03-08T14:53:53;711.63;;;506.90;;
52438;SDS011;73188;52.948;6.012;2024-03-08T15:04:19;266.52;;;246.73;;
52438;SDS011;73188;52.948;6.012;2024-03-08T15:14:45;701.55;;;352.38;;
52438;SDS011;73188;52.948;6.012;2024-03-08T15:25:11;1197.80;;;458.33;;
52438;SDS011;73188;52.948;6.012;2024-03-08T15:35:42;648.33;;;433.60;;
52438;SDS011;73188;52.948;6.012;2024-03-08T15:46:12;163.43;;;146.35;;
52438;SDS011;73188;52.948;6.012;2024-03-08T15:56:38;524.83;;;361.38;;
52438;SDS011;73188;52.948;6.012;2024-03-08T16:07:04;491.60;;;373.38;;
52438;SDS011;73188;52.948;6.012;2024-03-08T16:17:30;502.63;;;386.55;;
52438;SDS011;73188;52.948;6.012;2024-03-08T16:27:56;520.80;;;401.35;;
52438;SDS011;73188;52.948;6.012;2024-03-08T16:38:23;324.13;;;161.90;;
52438;SDS011;73188;52.948;6.012;2024-03-08T16:48:48;1462.03;;;593.83;;
52438;SDS011;73188;52.948;6.012;2024-03-08T16:59:14;1415.43;;;533.85;;
52438;SDS011;73188;52.948;6.012;2024-03-08T17:09:41;1322.00;;;491.00;;
52438;SDS011;73188;52.948;6.012;2024-03-08T17:20:07;232.63;;;127.32;;
52438;SDS011;73188;52.948;6.012;2024-03-08T17:30:40;307.67;;;256.13;;
52438;SDS011;73188;52.948;6.012;2024-03-08T17:41:09;68.05;;;48.58;;
52438;SDS011;73188;52.948;6.012;2024-03-08T17:51:38;202.88;;;111.50;;
52438;SDS011;73188;52.948;6.012;2024-03-08T18:02:04;39.28;;;24.98;;
52438;SDS011;73188;52.948;6.012;2024-03-08T18:12:30;42.53;;;21.80;;
52438;SDS011;73188;52.948;6.012;2024-03-08T18:22:58;39.65;;;21.05;;
52438;SDS011;73188;52.948;6.012;2024-03-08T18:33:26;44.10;;;20.25;;
52438;SDS011;73188;52.948;6.012;2024-03-08T18:43:55;45.00;;;21.02;;
52438;SDS011;73188;52.948;6.012;2024-03-08T18:54:22;44.38;;;22.75;;
52438;SDS011;73188;52.948;6.012;2024-03-08T19:04:52;48.08;;;22.10;;
52438;SDS011;73188;52.948;6.012;2024-03-08T19:15:21;44.00;;;22.45;;
52438;SDS011;73188;52.948;6.012;2024-03-08T19:25:48;45.10;;;22.85;;
52438;SDS011;73188;52.948;6.012;2024-03-08T19:36:14;44.65;;;21.83;;
52438;SDS011;73188;52.948;6.012;2024-03-08T19:46:43;53.42;;;22.65;;
52438;SDS011;73188;52.948;6.012;2024-03-08T19:57:08;52.75;;;24.13;;
52438;SDS011;73188;52.948;6.012;2024-03-08T20:07:35;46.90;;;22.98;;
52438;SDS011;73188;52.948;6.012;2024-03-08T20:18:01;46.28;;;22.85;;
52438;SDS011;73188;52.948;6.012;2024-03-08T20:28:27;47.10;;;22.13;;
52438;SDS011;73188;52.948;6.012;2024-03-08T20:38:57;44.38;;;22.50;;
52438;SDS011;73188;52.948;6.012;2024-03-08T20:49:23;46.92;;;21.60;;
52438;SDS011;73188;52.948;6.012;2024-03-08T20:59:49;49.38;;;23.63;;
52438;SDS011;73188;52.948;6.012;2024-03-08T21:10:15;46.17;;;22.65;;
52438;SDS011;73188;52.948;6.012;2024-03-08T21:20:41;45.45;;;22.17;;
52438;SDS011;73188;52.948;6.012;2024-03-08T21:31:08;50.40;;;22.83;;
52438;SDS011;73188;52.948;6.012;2024-03-08T21:41:33;47.28;;;23.30;;
52438;SDS011;73188;52.948;6.012;2024-03-08T21:51:59;54.53;;;24.75;;
52438;SDS011;73188;52.948;6.012;2024-03-08T22:02:28;53.63;;;25.60;;
52438;SDS011;73188;52.948;6.012;2024-03-08T22:12:55;57.72;;;25.35;;
52438;SDS011;73188;52.948;6.012;2024-03-08T22:23:21;48.83;;;23.45;;
52438;SDS011;73188;52.948;6.012;2024-03-08T22:33:49;48.25;;;22.88;;
52438;SDS011;73188;52.948;6.012;2024-03-08T22:44:16;54.72;;;24.60;;
52438;SDS011;73188;52.948;6.012;2024-03-08T22:54:42;57.13;;;24.83;;
52438;SDS011;73188;52.948;6.012;2024-03-08T23:05:08;43.38;;;21.98;;
52438;SDS011;73188;52.948;6.012;2024-03-08T23:15:33;44.35;;;22.00;;
52438;SDS011;73188;52.948;6.012;2024-03-08T23:26:03;50.88;;;24.48;;
52438;SDS011;73188;52.948;6.012;2024-03-08T23:36:29;58.63;;;25.58;;
52438;SDS011;73188;52.948;6.012;2024-03-08T23:46:55;53.42;;;25.50;;
52438;SDS011;73188;52.948;6.012;2024-03-08T23:57:21;56.10;;;25.27;;
